sensor_id;sensor_type;location;lat;lon;timestamp;P1;durP1;ratioP1;P2;durP2;ratioP2
53977;SDS011;39886;47.984;-1.586;2024-02-15T00:00:12;2.00;;;1.50;;
53977;SDS011;39886;47.984;-1.586;2024-02-15T00:02:38;1.88;;;1.38;;
53977;SDS011;39886;47.984;-1.586;2024-02-15T00:05:03;1.45;;;1.30;;
53977;SDS011;39886;47.984;-1.586;2024-02-15T00:07:30;2.40;;;1.52;;
53977;SDS011;39886;47.984;-1.586;2024-02-15T00:09:55;1.67;;;1.58;;
53977;SDS011;39886;47.984;-1.586;2024-02-15T00:12:21;1.75;;;1.20;;
53977;SDS011;39886;47.984;-1.586;2024-02-15T00:14:47;2.33;;;1.30;;
53977;SDS011;39886;47.984;-1.586;2024-02-15T00:17:13;2.05;;;1.30;;
53977;SDS011;39886;47.984;-1.586;2024-02-15T00:19:39;1.30;;;1.20;;
53977;SDS011;39886;47.984;-1.586;2024-02-15T00:22:07;1.45;;;1.30;;
53977;SDS011;39886;47.984;-1.586;2024-02-15T00:24:33;1.77;;;1.40;;
53977;SDS011;39886;47.984;-1.586;2024-02-15T00:27:02;2.33;;;1.27;;
53977;SDS011;39886;47.984;-1.586;2024-02-15T00:29:29;1.73;;;1.42;;
53977;SDS011;39886;47.984;-1.586;2024-02-15T00:31:56;1.63;;;1.30;;
53977;SDS011;39886;47.984;-1.586;2024-02-15T00:34:22;1.25;;;1.05;;
53977;SDS011;39886;47.984;-1.586;2024-02-15T00:36:51;1.98;;;1.70;;
53977;SDS011;39886;47.984;-1.586;2024-02-15T00:39:16;1.52;;;1.30;;
53977;SDS011;39886;47.984;-1.586;2024-02-15T00:41:43;1.95;;;1.27;;
53977;SDS011;39886;47.984;-1.586;2024-02-15T00:44:10;1.83;;;1.40;;
53977;SDS011;39886;47.984;-1.586;2024-02-15T00:46:36;1.90;;;1.48;;
53977;SDS011;39886;47.984;-1.586;2024-02-15T00:49:05;2.17;;;1.33;;
53977;SDS011;39886;47.984;-1.586;2024-02-15T00:51:31;1.65;;;1.40;;
53977;SDS011;39886;47.984;-1.586;2024-02-15T00:53:59;2.88;;;1.52;;
53977;SDS011;39886;47.984;-1.586;2024-02-15T00:56:26;1.58;;;1.40;;
53977;SDS011;39886;47.984;-1.586;2024-02-15T00:58:52;1.67;;;1.30;;
53977;SDS011;39886;47.984;-1.586;2024-02-15T01:01:18;1.77;;;1.27;;
53977;SDS011;39886;47.984;-1.586;2024-02-15T01:03:44;1.70;;;1.45;;
53977;SDS011;39886;47.984;-1.586;2024-02-15T01:06:09;2.03;;;1.42;;
53977;SDS011;39886;47.984;-1.586;2024-02-15T01:08:38;1.42;;;1.33;;
53977;SDS011;39886;47.984;-1.586;2024-02-15T01:11:04;1.63;;;1.33;;
53977;SDS011;39886;47.984;-1.586;2024-02-15T01:13:31;2.00;;;1.50;;
53977;SDS011;39886;47.984;-1.586;2024-02-15T01:15:57;1.63;;;1.30;;
53977;SDS011;39886;47.984;-1.586;2024-02-15T01:18:22;2.83;;;1.48;;
53977;SDS011;39886;47.984;-1.586;2024-02-15T01:20:48;1.75;;;1.20;;
53977;SDS011;39886;47.984;-1.586;2024-02-15T01:23:14;1.40;;;1.13;;
53977;SDS011;39886;47.984;-1.586;2024-02-15T01:25:40;1.50;;;1.40;;
53977;SDS011;39886;47.984;-1.586;2024-02-15T01:28:06;1.63;;;1.52;;
53977;SDS011;39886;47.984;-1.586;2024-02-15T01:30:31;1.75;;;1.25;;
53977;SDS011;39886;47.984;-1.586;2024-02-15T01:32:57;1.77;;;1.35;;
53977;SDS011;39886;47.984;-1.586;2024-02-15T01:35:24;1.83;;;1.33;;
53977;SDS011;39886;47.984;-1.586;2024-02-15T01:37:50;1.58;;;1.30;;
53977;SDS011;39886;47.984;-1.586;2024-02-15T01:40:17;2.13;;;1.55;;
53977;SDS011;39886;47.984;-1.586;2024-02-15T01:42:44;1.20;;;1.20;;
53977;SDS011;39886;47.984;-1.586;2024-02-15T01:45:10;1.80;;;1.38;;
53977;SDS011;39886;47.984;-1.586;2024-02-15T01:47:39;1.30;;;1.20;;
53977;SDS011;39886;47.984;-1.586;2024-02-15T01:50:05;1.48;;;1.38;;
53977;SDS011;39886;47.984;-1.586;2024-02-15T01:52:32;1.50;;;1.40;;
53977;SDS011;39886;47.984;-1.586;2024-02-15T01:54:58;1.40;;;1.30;;
53977;SDS011;39886;47.984;-1.586;2024-02-15T01:57:33;1.60;;;1.50;;
53977;SDS011;39886;47.984;-1.586;2024-02-15T02:00:00;2.10;;;1.23;;
53977;SDS011;39886;47.984;-1.586;2024-02-15T02:02:27;1.52;;;1.40;;
53977;SDS011;39886;47.984;-1.586;2024-02-15T02:04:58;2.03;;;1.30;;
53977;SDS011;39886;47.984;-1.586;2024-02-15T02:07:23;2.30;;;1.30;;
53977;SDS011;39886;47.984;-1.586;2024-02-15T02:09:49;1.80;;;1.33;;
53977;SDS011;39886;47.984;-1.586;2024-02-15T02:12:15;1.33;;;1.25;;
53977;SDS011;39886;47.984;-1.586;2024-02-15T02:14:41;1.50;;;1.40;;
53977;SDS011;39886;47.984;-1.586;2024-02-15T02:17:10;1.30;;;1.20;;
53977;SDS011;39886;47.984;-1.586;2024-02-15T02:19:37;1.55;;;1.30;;
53977;SDS011;39886;47.984;-1.586;2024-02-15T02:22:03;1.85;;;1.52;;
53977;SDS011;39886;47.984;-1.586;2024-02-15T02:24:30;2.00;;;1.35;;
53977;SDS011;39886;47.984;-1.586;2024-02-15T02:27:03;1.33;;;1.20;;
53977;SDS011;39886;47.984;-1.586;2024-02-15T02:29:30;1.60;;;1.50;;
53977;SDS011;39886;47.984;-1.586;2024-02-15T02:31:57;2.53;;;1.88;;
53977;SDS011;39886;47.984;-1.586;2024-02-15T02:34:22;1.88;;;1.60;;
53977;SDS011;39886;47.984;-1.586;2024-02-15T02:36:49;2.35;;;1.80;;
53977;SDS011;39886;47.984;-1.586;2024-02-15T02:39:16;1.50;;;1.30;;
53977;SDS011;39886;47.984;-1.586;2024-02-15T02:41:42;1.77;;;1.45;;
53977;SDS011;39886;47.984;-1.586;2024-02-15T02:44:08;1.75;;;1.40;;
53977;SDS011;39886;47.984;-1.586;2024-02-15T02:46:34;1.75;;;1.30;;
53977;SDS011;39886;47.984;-1.586;2024-02-15T02:49:00;1.77;;;1.40;;
53977;SDS011;39886;47.984;-1.586;2024-02-15T02:51:26;2.13;;;1.60;;
53977;SDS011;39886;47.984;-1.586;2024-02-15T02:53:52;1.38;;;1.23;;
53977;SDS011;39886;47.984;-1.586;2024-02-15T02:56:18;1.40;;;1.30;;
53977;SDS011;39886;47.984;-1.586;2024-02-15T02:58:43;1.50;;;1.40;;
53977;SDS011;39886;47.984;-1.586;2024-02-15T03:01:09;1.23;;;1.13;;
53977;SDS011;39886;47.984;-1.586;2024-02-15T03:03:38;1.70;;;1.50;;
53977;SDS011;39886;47.984;-1.586;2024-02-15T03:06:04;1.58;;;1.40;;
53977;SDS011;39886;47.984;-1.586;2024-02-15T03:08:31;1.77;;;1.42;;
53977;SDS011;39886;47.984;-1.586;2024-02-15T03:10:56;1.40;;;1.30;;
53977;SDS011;39886;47.984;-1.586;2024-02-15T03:13:22;2.50;;;1.50;;
53977;SDS011;39886;47.984;-1.586;2024-02-15T03:15:48;1.63;;;1.50;;
53977;SDS011;39886;47.984;-1.586;2024-02-15T03:18:17;1.85;;;1.45;;
53977;SDS011;39886;47.984;-1.586;2024-02-15T03:20:42;1.98;;;1.55;;
53977;SDS011;39886;47.984;-1.586;2024-02-15T03:23:08;2.25;;;1.60;;
53977;SDS011;39886;47.984;-1.586;2024-02-15T03:25:34;1.55;;;1.40;;
53977;SDS011;39886;47.984;-1.586;2024-02-15T03:28:00;1.58;;;1.38;;
53977;SDS011;39886;47.984;-1.586;2024-02-15T03:30:30;1.75;;;1.30;;
53977;SDS011;39886;47.984;-1.586;2024-02-15T03:32:57;1.52;;;1.42;;
53977;SDS011;39886;47.984;-1.586;2024-02-15T03:35:26;1.73;;;1.40;;
53977;SDS011;39886;47.984;-1.586;2024-02-15T03:37:53;1.50;;;1.40;;
53977;SDS011;39886;47.984;-1.586;2024-02-15T03:40:20;2.20;;;1.40;;
53977;SDS011;39886;47.984;-1.586;2024-02-15T03:42:46;1.50;;;1.38;;
53977;SDS011;39886;47.984;-1.586;2024-02-15T03:45:12;1.90;;;1.70;;
53977;SDS011;39886;47.984;-1.586;2024-02-15T03:47:38;1.75;;;1.48;;
53977;SDS011;39886;47.984;-1.586;2024-02-15T03:50:04;1.60;;;1.50;;
53977;SDS011;39886;47.984;-1.586;2024-02-15T03:52:31;1.60;;;1.50;;
53977;SDS011;39886;47.984;-1.586;2024-02-15T03:54:57;1.88;;;1.60;;
53977;SDS011;39886;47.984;-1.586;2024-02-15T03:57:24;1.50;;;1.40;;
53977;SDS011;39886;47.984;-1.586;2024-02-15T03:59:51;1.60;;;1.50;;
53977;SDS011;39886;47.984;-1.586;2024-02-15T04:02:22;1.73;;;1.50;;
53977;SDS011;39886;47.984;-1.586;2024-02-15T04:04:49;1.58;;;1.40;;
53977;SDS011;39886;47.984;-1.586;2024-02-15T04:07:17;1.45;;;1.33;;
53977;SDS011;39886;47.984;-1.586;2024-02-15T04:09:44;1.83;;;1.42;;
53977;SDS011;39886;47.984;-1.586;2024-02-15T04:12:11;2.17;;;1.60;;
53977;SDS011;39886;47.984;-1.586;2024-02-15T04:14:37;1.85;;;1.35;;
53977;SDS011;39886;47.984;-1.586;2024-02-15T04:17:06;1.80;;;1.30;;
53977;SDS011;39886;47.984;-1.586;2024-02-15T04:19:33;1.67;;;1.40;;
53977;SDS011;39886;47.984;-1.586;2024-02-15T04:21:59;1.60;;;1.40;;
53977;SDS011;39886;47.984;-1.586;2024-02-15T04:24:28;1.67;;;1.58;;
53977;SDS011;39886;47.984;-1.586;2024-02-15T04:26:54;2.28;;;1.50;;
53977;SDS011;39886;47.984;-1.586;2024-02-15T04:29:20;1.88;;;1.63;;
53977;SDS011;39886;47.984;-1.586;2024-02-15T04:31:46;1.70;;;1.42;;
53977;SDS011;39886;47.984;-1.586;2024-02-15T04:34:15;1.90;;;1.45;;
53977;SDS011;39886;47.984;-1.586;2024-02-15T04:36:43;1.52;;;1.42;;
53977;SDS011;39886;47.984;-1.586;2024-02-15T04:39:14;1.70;;;1.40;;
53977;SDS011;39886;47.984;-1.586;2024-02-15T04:41:48;1.95;;;1.50;;
53977;SDS011;39886;47.984;-1.586;2024-02-15T04:44:17;1.60;;;1.50;;
53977;SDS011;39886;47.984;-1.586;2024-02-15T04:46:45;1.92;;;1.48;;
53977;SDS011;39886;47.984;-1.586;2024-02-15T04:49:12;1.60;;;1.50;;
53977;SDS011;39886;47.984;-1.586;2024-02-15T04:51:39;1.67;;;1.58;;
53977;SDS011;39886;47.984;-1.586;2024-02-15T04:54:06;1.60;;;1.50;;
53977;SDS011;39886;47.984;-1.586;2024-02-15T04:56:38;1.73;;;1.63;;
53977;SDS011;39886;47.984;-1.586;2024-02-15T04:59:06;2.05;;;1.50;;
53977;SDS011;39886;47.984;-1.586;2024-02-15T05:01:42;1.38;;;1.23;;
53977;SDS011;39886;47.984;-1.586;2024-02-15T05:04:09;1.52;;;1.40;;
53977;SDS011;39886;47.984;-1.586;2024-02-15T05:06:35;1.95;;;1.50;;
53977;SDS011;39886;47.984;-1.586;2024-02-15T05:09:02;2.30;;;1.73;;
53977;SDS011;39886;47.984;-1.586;2024-02-15T05:11:36;1.52;;;1.42;;
53977;SDS011;39886;47.984;-1.586;2024-02-15T05:14:03;1.23;;;1.20;;
53977;SDS011;39886;47.984;-1.586;2024-02-15T05:16:32;1.85;;;1.50;;
53977;SDS011;39886;47.984;-1.586;2024-02-15T05:18:58;1.45;;;1.35;;
53977;SDS011;39886;47.984;-1.586;2024-02-15T05:21:24;1.55;;;1.40;;
53977;SDS011;39886;47.984;-1.586;2024-02-15T05:23:50;1.50;;;1.40;;
53977;SDS011;39886;47.984;-1.586;2024-02-15T05:26:17;1.70;;;1.40;;
53977;SDS011;39886;47.984;-1.586;2024-02-15T05:28:48;1.60;;;1.50;;
53977;SDS011;39886;47.984;-1.586;2024-02-15T05:31:15;1.30;;;1.20;;
53977;SDS011;39886;47.984;-1.586;2024-02-15T05:33:49;1.52;;;1.30;;
53977;SDS011;39886;47.984;-1.586;2024-02-15T05:36:16;2.05;;;1.58;;
53977;SDS011;39886;47.984;-1.586;2024-02-15T05:38:54;1.80;;;1.40;;
53977;SDS011;39886;47.984;-1.586;2024-02-15T05:41:22;1.73;;;1.38;;
53977;SDS011;39886;47.984;-1.586;2024-02-15T05:43:48;1.50;;;1.40;;
53977;SDS011;39886;47.984;-1.586;2024-02-15T05:46:13;1.85;;;1.60;;
53977;SDS011;39886;47.984;-1.586;2024-02-15T05:48:39;2.08;;;1.70;;
53977;SDS011;39886;47.984;-1.586;2024-02-15T05:51:09;1.60;;;1.50;;
53977;SDS011;39886;47.984;-1.586;2024-02-15T05:53:35;1.75;;;1.60;;
53977;SDS011;39886;47.984;-1.586;2024-02-15T05:56:04;1.52;;;1.38;;
53977;SDS011;39886;47.984;-1.586;2024-02-15T05:58:35;1.50;;;1.40;;
53977;SDS011;39886;47.984;-1.586;2024-02-15T06:01:02;1.58;;;1.48;;
53977;SDS011;39886;47.984;-1.586;2024-02-15T06:03:34;1.55;;;1.45;;
53977;SDS011;39886;47.984;-1.586;2024-02-15T06:06:02;1.50;;;1.40;;
53977;SDS011;39886;47.984;-1.586;2024-02-15T06:08:32;1.80;;;1.40;;
53977;SDS011;39886;47.984;-1.586;2024-02-15T06:11:01;1.50;;;1.38;;
53977;SDS011;39886;47.984;-1.586;2024-02-15T06:13:28;1.70;;;1.60;;
53977;SDS011;39886;47.984;-1.586;2024-02-15T06:15:54;2.15;;;1.50;;
53977;SDS011;39886;47.984;-1.586;2024-02-15T06:18:24;1.60;;;1.50;;
53977;SDS011;39886;47.984;-1.586;2024-02-15T06:20:52;1.65;;;1.30;;
53977;SDS011;39886;47.984;-1.586;2024-02-15T06:23:18;1.63;;;1.40;;
53977;SDS011;39886;47.984;-1.586;2024-02-15T06:25:47;1.88;;;1.70;;
53977;SDS011;39886;47.984;-1.586;2024-02-15T06:28:13;1.70;;;1.52;;
53977;SDS011;39886;47.984;-1.586;2024-02-15T06:30:59;1.63;;;1.52;;
53977;SDS011;39886;47.984;-1.586;2024-02-15T06:33:43;1.75;;;1.40;;
53977;SDS011;39886;47.984;-1.586;2024-02-15T06:36:27;1.83;;;1.50;;
53977;SDS011;39886;47.984;-1.586;2024-02-15T06:39:12;1.40;;;1.30;;
53977;SDS011;39886;47.984;-1.586;2024-02-15T06:41:56;1.42;;;1.33;;
53977;SDS011;39886;47.984;-1.586;2024-02-15T06:44:21;1.30;;;1.20;;
53977;SDS011;39886;47.984;-1.586;2024-02-15T06:46:49;1.95;;;1.50;;
53977;SDS011;39886;47.984;-1.586;2024-02-15T06:49:15;1.55;;;1.45;;
53977;SDS011;39886;47.984;-1.586;2024-02-15T06:51:41;2.35;;;1.35;;
53977;SDS011;39886;47.984;-1.586;2024-02-15T06:54:08;1.83;;;1.40;;
53977;SDS011;39886;47.984;-1.586;2024-02-15T06:56:37;1.45;;;1.35;;
53977;SDS011;39886;47.984;-1.586;2024-02-15T06:59:03;1.50;;;1.40;;
53977;SDS011;39886;47.984;-1.586;2024-02-15T07:01:29;2.08;;;1.65;;
53977;SDS011;39886;47.984;-1.586;2024-02-15T07:03:55;2.58;;;1.40;;
53977;SDS011;39886;47.984;-1.586;2024-02-15T07:06:21;1.40;;;1.30;;
53977;SDS011;39886;47.984;-1.586;2024-02-15T07:08:47;1.33;;;1.25;;
53977;SDS011;39886;47.984;-1.586;2024-02-15T07:11:15;1.50;;;1.40;;
53977;SDS011;39886;47.984;-1.586;2024-02-15T07:13:41;1.55;;;1.40;;
53977;SDS011;39886;47.984;-1.586;2024-02-15T07:16:07;1.90;;;1.35;;
53977;SDS011;39886;47.984;-1.586;2024-02-15T07:18:33;1.55;;;1.40;;
53977;SDS011;39886;47.984;-1.586;2024-02-15T07:20:59;1.50;;;1.40;;
53977;SDS011;39886;47.984;-1.586;2024-02-15T07:23:26;1.48;;;1.38;;
53977;SDS011;39886;47.984;-1.586;2024-02-15T07:25:52;1.92;;;1.40;;
53977;SDS011;39886;47.984;-1.586;2024-02-15T07:28:19;1.90;;;1.40;;
53977;SDS011;39886;47.984;-1.586;2024-02-15T07:30:51;1.48;;;1.38;;
53977;SDS011;39886;47.984;-1.586;2024-02-15T07:33:17;1.83;;;1.50;;
53977;SDS011;39886;47.984;-1.586;2024-02-15T07:35:45;1.85;;;1.40;;
53977;SDS011;39886;47.984;-1.586;2024-02-15T07:38:11;2.15;;;1.63;;
53977;SDS011;39886;47.984;-1.586;2024-02-15T07:40:37;2.17;;;1.50;;
53977;SDS011;39886;47.984;-1.586;2024-02-15T07:43:04;1.30;;;1.20;;
53977;SDS011;39886;47.984;-1.586;2024-02-15T07:45:31;1.85;;;1.52;;
53977;SDS011;39886;47.984;-1.586;2024-02-15T07:48:00;4.18;;;1.50;;
53977;SDS011;39886;47.984;-1.586;2024-02-15T07:50:26;5.78;;;1.55;;
53977;SDS011;39886;47.984;-1.586;2024-02-15T07:52:52;3.45;;;1.30;;
53977;SDS011;39886;47.984;-1.586;2024-02-15T07:55:18;1.33;;;1.20;;
53977;SDS011;39886;47.984;-1.586;2024-02-15T07:57:44;1.25;;;1.13;;
53977;SDS011;39886;47.984;-1.586;2024-02-15T08:00:13;1.90;;;1.50;;
53977;SDS011;39886;47.984;-1.586;2024-02-15T08:02:41;2.25;;;1.50;;
53977;SDS011;39886;47.984;-1.586;2024-02-15T08:05:09;2.15;;;1.25;;
53977;SDS011;39886;47.984;-1.586;2024-02-15T08:07:40;2.50;;;1.40;;
53977;SDS011;39886;47.984;-1.586;2024-02-15T08:10:09;4.55;;;1.80;;
53977;SDS011;39886;47.984;-1.586;2024-02-15T08:12:40;3.40;;;1.58;;
53977;SDS011;39886;47.984;-1.586;2024-02-15T08:15:10;4.07;;;1.50;;
53977;SDS011;39886;47.984;-1.586;2024-02-15T08:17:43;2.00;;;1.60;;
53977;SDS011;39886;47.984;-1.586;2024-02-15T08:20:13;3.75;;;1.50;;
53977;SDS011;39886;47.984;-1.586;2024-02-15T08:22:40;3.03;;;1.35;;
53977;SDS011;39886;47.984;-1.586;2024-02-15T08:25:12;3.08;;;1.55;;
53977;SDS011;39886;47.984;-1.586;2024-02-15T08:27:39;2.15;;;1.50;;
53977;SDS011;39886;47.984;-1.586;2024-02-15T08:30:13;3.63;;;1.30;;
53977;SDS011;39886;47.984;-1.586;2024-02-15T08:32:39;2.72;;;1.42;;
53977;SDS011;39886;47.984;-1.586;2024-02-15T08:35:07;2.17;;;1.45;;
53977;SDS011;39886;47.984;-1.586;2024-02-15T08:37:34;2.92;;;1.48;;
53977;SDS011;39886;47.984;-1.586;2024-02-15T08:40:04;3.10;;;1.60;;
53977;SDS011;39886;47.984;-1.586;2024-02-15T08:42:43;1.80;;;1.60;;
53977;SDS011;39886;47.984;-1.586;2024-02-15T08:45:09;4.65;;;1.60;;
53977;SDS011;39886;47.984;-1.586;2024-02-15T08:47:39;3.60;;;1.50;;
53977;SDS011;39886;47.984;-1.586;2024-02-15T08:50:05;2.05;;;1.40;;
53977;SDS011;39886;47.984;-1.586;2024-02-15T08:52:34;4.57;;;1.60;;
53977;SDS011;39886;47.984;-1.586;2024-02-15T08:55:04;2.33;;;1.40;;
53977;SDS011;39886;47.984;-1.586;2024-02-15T08:57:34;6.05;;;1.75;;
53977;SDS011;39886;47.984;-1.586;2024-02-15T09:00:06;2.00;;;1.50;;
53977;SDS011;39886;47.984;-1.586;2024-02-15T09:02:38;2.88;;;1.67;;
53977;SDS011;39886;47.984;-1.586;2024-02-15T09:05:10;3.47;;;1.75;;
53977;SDS011;39886;47.984;-1.586;2024-02-15T09:07:40;3.38;;;1.63;;
53977;SDS011;39886;47.984;-1.586;2024-02-15T09:10:09;3.72;;;1.40;;
53977;SDS011;39886;47.984;-1.586;2024-02-15T09:12:36;2.03;;;1.50;;
53977;SDS011;39886;47.984;-1.586;2024-02-15T09:15:08;3.33;;;1.70;;
53977;SDS011;39886;47.984;-1.586;2024-02-15T09:17:35;3.75;;;1.70;;
53977;SDS011;39886;47.984;-1.586;2024-02-15T09:20:07;3.35;;;1.67;;
53977;SDS011;39886;47.984;-1.586;2024-02-15T09:22:39;2.75;;;2.00;;
53977;SDS011;39886;47.984;-1.586;2024-02-15T09:25:11;1.98;;;1.70;;
53977;SDS011;39886;47.984;-1.586;2024-02-15T09:27:38;5.47;;;1.83;;
53977;SDS011;39886;47.984;-1.586;2024-02-15T09:30:08;4.78;;;1.90;;
53977;SDS011;39886;47.984;-1.586;2024-02-15T09:32:41;4.50;;;2.10;;
53977;SDS011;39886;47.984;-1.586;2024-02-15T09:35:08;6.03;;;1.70;;
53977;SDS011;39886;47.984;-1.586;2024-02-15T09:37:38;1.48;;;1.35;;
53977;SDS011;39886;47.984;-1.586;2024-02-15T09:40:11;3.13;;;1.80;;
53977;SDS011;39886;47.984;-1.586;2024-02-15T09:42:38;2.22;;;1.70;;
53977;SDS011;39886;47.984;-1.586;2024-02-15T09:45:05;6.18;;;1.83;;
53977;SDS011;39886;47.984;-1.586;2024-02-15T09:47:33;4.05;;;1.70;;
53977;SDS011;39886;47.984;-1.586;2024-02-15T09:50:06;5.07;;;1.90;;
53977;SDS011;39886;47.984;-1.586;2024-02-15T09:52:51;2.83;;;1.70;;
53977;SDS011;39886;47.984;-1.586;2024-02-15T09:55:17;3.97;;;1.60;;
53977;SDS011;39886;47.984;-1.586;2024-02-15T09:57:44;4.10;;;1.92;;
53977;SDS011;39886;47.984;-1.586;2024-02-15T10:00:12;2.20;;;1.75;;
53977;SDS011;39886;47.984;-1.586;2024-02-15T10:02:42;2.53;;;1.77;;
53977;SDS011;39886;47.984;-1.586;2024-02-15T10:05:16;4.43;;;1.77;;
53977;SDS011;39886;47.984;-1.586;2024-02-15T10:07:43;3.55;;;1.73;;
53977;SDS011;39886;47.984;-1.586;2024-02-15T10:10:19;3.45;;;1.60;;
53977;SDS011;39886;47.984;-1.586;2024-02-15T10:12:46;2.85;;;1.80;;
53977;SDS011;39886;47.984;-1.586;2024-02-15T10:17:56;3.63;;;1.60;;
53977;SDS011;39886;47.984;-1.586;2024-02-15T10:20:32;6.65;;;1.70;;
53977;SDS011;39886;47.984;-1.586;2024-02-15T10:25:29;3.30;;;1.85;;
53977;SDS011;39886;47.984;-1.586;2024-02-15T10:35:20;5.72;;;1.88;;
53977;SDS011;39886;47.984;-1.586;2024-02-15T10:37:47;3.95;;;1.55;;
53977;SDS011;39886;47.984;-1.586;2024-02-15T10:40:22;3.72;;;1.60;;
53977;SDS011;39886;47.984;-1.586;2024-02-15T10:42:48;5.00;;;1.77;;
53977;SDS011;39886;47.984;-1.586;2024-02-15T10:45:16;6.22;;;2.20;;
53977;SDS011;39886;47.984;-1.586;2024-02-15T10:47:45;1.95;;;1.50;;
53977;SDS011;39886;47.984;-1.586;2024-02-15T10:50:14;4.35;;;1.90;;
53977;SDS011;39886;47.984;-1.586;2024-02-15T10:53:47;2.92;;;1.85;;
53977;SDS011;39886;47.984;-1.586;2024-02-15T10:55:52;5.75;;;1.77;;
53977;SDS011;39886;47.984;-1.586;2024-02-15T10:58:25;4.90;;;1.83;;
53977;SDS011;39886;47.984;-1.586;2024-02-15T11:00:55;3.03;;;1.90;;
53977;SDS011;39886;47.984;-1.586;2024-02-15T11:03:29;2.90;;;1.58;;
53977;SDS011;39886;47.984;-1.586;2024-02-15T11:06:01;2.42;;;1.65;;
53977;SDS011;39886;47.984;-1.586;2024-02-15T11:08:27;2.50;;;1.75;;
53977;SDS011;39886;47.984;-1.586;2024-02-15T11:10:54;2.42;;;1.42;;
53977;SDS011;39886;47.984;-1.586;2024-02-15T11:13:23;3.72;;;1.70;;
53977;SDS011;39886;47.984;-1.586;2024-02-15T11:15:50;2.72;;;1.67;;
53977;SDS011;39886;47.984;-1.586;2024-02-15T11:21:16;3.80;;;1.85;;
53977;SDS011;39886;47.984;-1.586;2024-02-15T11:23:43;4.88;;;1.70;;
53977;SDS011;39886;47.984;-1.586;2024-02-15T11:35:10;4.85;;;1.70;;
53977;SDS011;39886;47.984;-1.586;2024-02-15T11:40:15;4.78;;;1.80;;
53977;SDS011;39886;47.984;-1.586;2024-02-15T11:42:42;4.07;;;1.65;;
53977;SDS011;39886;47.984;-1.586;2024-02-15T11:45:08;5.15;;;1.55;;
53977;SDS011;39886;47.984;-1.586;2024-02-15T11:47:37;1.95;;;1.50;;
53977;SDS011;39886;47.984;-1.586;2024-02-15T11:50:08;1.95;;;1.70;;
53977;SDS011;39886;47.984;-1.586;2024-02-15T11:52:40;1.98;;;1.77;;
53977;SDS011;39886;47.984;-1.586;2024-02-15T11:55:07;3.33;;;1.60;;
53977;SDS011;39886;47.984;-1.586;2024-02-15T11:57:38;2.47;;;1.52;;
53977;SDS011;39886;47.984;-1.586;2024-02-15T12:00:22;2.28;;;1.70;;
53977;SDS011;39886;47.984;-1.586;2024-02-15T12:03:07;2.88;;;1.80;;
53977;SDS011;39886;47.984;-1.586;2024-02-15T12:05:52;3.53;;;1.75;;
53977;SDS011;39886;47.984;-1.586;2024-02-15T12:08:43;2.60;;;1.50;;
53977;SDS011;39886;47.984;-1.586;2024-02-15T12:11:28;2.53;;;1.60;;
53977;SDS011;39886;47.984;-1.586;2024-02-15T12:14:12;1.42;;;1.33;;
53977;SDS011;39886;47.984;-1.586;2024-02-15T12:16:58;3.45;;;1.45;;
53977;SDS011;39886;47.984;-1.586;2024-02-15T12:19:47;2.17;;;1.55;;
53977;SDS011;39886;47.984;-1.586;2024-02-15T12:25:03;1.50;;;1.40;;
53977;SDS011;39886;47.984;-1.586;2024-02-15T12:27:36;2.15;;;1.60;;
53977;SDS011;39886;47.984;-1.586;2024-02-15T12:30:04;3.13;;;1.30;;
53977;SDS011;39886;47.984;-1.586;2024-02-15T12:32:32;3.03;;;1.67;;
53977;SDS011;39886;47.984;-1.586;2024-02-15T12:35:10;5.45;;;1.70;;
53977;SDS011;39886;47.984;-1.586;2024-02-15T12:37:47;4.80;;;1.40;;
53977;SDS011;39886;47.984;-1.586;2024-02-15T12:40:37;4.57;;;1.77;;
53977;SDS011;39886;47.984;-1.586;2024-02-15T12:43:05;4.75;;;2.20;;
53977;SDS011;39886;47.984;-1.586;2024-02-15T12:45:33;4.47;;;2.42;;
53977;SDS011;39886;47.984;-1.586;2024-02-15T12:48:03;3.58;;;2.00;;
53977;SDS011;39886;47.984;-1.586;2024-02-15T12:50:30;4.28;;;2.22;;
53977;SDS011;39886;47.984;-1.586;2024-02-15T12:52:56;3.63;;;1.90;;
53977;SDS011;39886;47.984;-1.586;2024-02-15T12:55:31;3.10;;;1.73;;
53977;SDS011;39886;47.984;-1.586;2024-02-15T12:58:04;4.30;;;2.08;;
53977;SDS011;39886;47.984;-1.586;2024-02-15T13:00:34;4.35;;;2.13;;
53977;SDS011;39886;47.984;-1.586;2024-02-15T13:03:04;4.32;;;2.20;;
53977;SDS011;39886;47.984;-1.586;2024-02-15T13:05:34;5.38;;;1.92;;
53977;SDS011;39886;47.984;-1.586;2024-02-15T13:08:01;3.88;;;2.40;;
53977;SDS011;39886;47.984;-1.586;2024-02-15T13:10:28;4.32;;;2.15;;
53977;SDS011;39886;47.984;-1.586;2024-02-15T13:12:57;4.07;;;2.13;;
53977;SDS011;39886;47.984;-1.586;2024-02-15T13:15:23;6.07;;;2.40;;
53977;SDS011;39886;47.984;-1.586;2024-02-15T13:17:57;4.43;;;2.03;;
53977;SDS011;39886;47.984;-1.586;2024-02-15T13:20:24;5.25;;;2.25;;
53977;SDS011;39886;47.984;-1.586;2024-02-15T13:22:57;6.18;;;2.53;;
53977;SDS011;39886;47.984;-1.586;2024-02-15T13:25:33;3.28;;;2.20;;
53977;SDS011;39886;47.984;-1.586;2024-02-15T13:28:01;5.07;;;2.10;;
53977;SDS011;39886;47.984;-1.586;2024-02-15T13:30:28;4.88;;;2.53;;
53977;SDS011;39886;47.984;-1.586;2024-02-15T13:32:53;4.97;;;2.08;;
53977;SDS011;39886;47.984;-1.586;2024-02-15T13:35:19;4.30;;;2.53;;
53977;SDS011;39886;47.984;-1.586;2024-02-15T13:37:49;4.53;;;2.50;;
53977;SDS011;39886;47.984;-1.586;2024-02-15T13:40:25;4.70;;;2.47;;
53977;SDS011;39886;47.984;-1.586;2024-02-15T13:42:58;4.43;;;2.58;;
53977;SDS011;39886;47.984;-1.586;2024-02-15T13:45:32;8.57;;;2.47;;
53977;SDS011;39886;47.984;-1.586;2024-02-15T13:48:02;3.38;;;2.13;;
53977;SDS011;39886;47.984;-1.586;2024-02-15T13:50:35;5.68;;;2.55;;
53977;SDS011;39886;47.984;-1.586;2024-02-15T13:53:02;4.13;;;2.75;;
53977;SDS011;39886;47.984;-1.586;2024-02-15T13:55:29;3.75;;;2.40;;
53977;SDS011;39886;47.984;-1.586;2024-02-15T13:57:55;7.10;;;2.88;;
53977;SDS011;39886;47.984;-1.586;2024-02-15T14:00:22;4.97;;;2.35;;
53977;SDS011;39886;47.984;-1.586;2024-02-15T14:02:49;7.05;;;2.60;;
53977;SDS011;39886;47.984;-1.586;2024-02-15T14:05:24;5.90;;;2.65;;
53977;SDS011;39886;47.984;-1.586;2024-02-15T14:07:54;8.25;;;2.78;;
53977;SDS011;39886;47.984;-1.586;2024-02-15T14:10:25;7.40;;;2.90;;
53977;SDS011;39886;47.984;-1.586;2024-02-15T14:12:53;5.18;;;2.47;;
53977;SDS011;39886;47.984;-1.586;2024-02-15T14:15:31;8.52;;;2.60;;
53977;SDS011;39886;47.984;-1.586;2024-02-15T14:18:06;5.78;;;2.22;;
53977;SDS011;39886;47.984;-1.586;2024-02-15T14:20:36;4.40;;;2.50;;
53977;SDS011;39886;47.984;-1.586;2024-02-15T14:23:02;7.25;;;2.60;;
53977;SDS011;39886;47.984;-1.586;2024-02-15T14:25:31;4.45;;;2.70;;
53977;SDS011;39886;47.984;-1.586;2024-02-15T14:27:57;5.07;;;2.63;;
53977;SDS011;39886;47.984;-1.586;2024-02-15T14:30:24;4.60;;;2.47;;
53977;SDS011;39886;47.984;-1.586;2024-02-15T14:33:09;4.85;;;2.30;;
53977;SDS011;39886;47.984;-1.586;2024-02-15T14:35:39;3.33;;;2.22;;
53977;SDS011;39886;47.984;-1.586;2024-02-15T14:38:05;3.63;;;2.10;;
53977;SDS011;39886;47.984;-1.586;2024-02-15T14:40:36;3.85;;;2.20;;
53977;SDS011;39886;47.984;-1.586;2024-02-15T14:43:06;3.90;;;2.22;;
53977;SDS011;39886;47.984;-1.586;2024-02-15T14:45:40;6.85;;;2.05;;
53977;SDS011;39886;47.984;-1.586;2024-02-15T14:48:09;4.18;;;2.33;;
53977;SDS011;39886;47.984;-1.586;2024-02-15T14:50:38;6.15;;;2.35;;
53977;SDS011;39886;47.984;-1.586;2024-02-15T14:53:04;4.13;;;2.28;;
53977;SDS011;39886;47.984;-1.586;2024-02-15T14:55:33;7.97;;;2.25;;
53977;SDS011;39886;47.984;-1.586;2024-02-15T14:58:04;2.78;;;2.20;;
53977;SDS011;39886;47.984;-1.586;2024-02-15T15:00:32;3.97;;;2.15;;
53977;SDS011;39886;47.984;-1.586;2024-02-15T15:02:59;4.38;;;2.17;;
53977;SDS011;39886;47.984;-1.586;2024-02-15T15:05:24;4.28;;;2.30;;
53977;SDS011;39886;47.984;-1.586;2024-02-15T15:08:08;4.68;;;2.13;;
53977;SDS011;39886;47.984;-1.586;2024-02-15T15:10:54;4.30;;;2.22;;
53977;SDS011;39886;47.984;-1.586;2024-02-15T15:13:38;4.25;;;2.30;;